sensor_id;sensor_type;location;lat;lon;timestamp;temperature;humidity
18339;DHT22;9295;44.484;11.240;2023-07-20T00:01:07;26.50;99.90
18339;DHT22;9295;44.484;11.240;2023-07-20T00:03:37;26.30;99.90
18339;DHT22;9295;44.484;11.240;2023-07-20T00:06:06;26.20;99.90
18339;DHT22;9295;44.484;11.240;2023-07-20T00:08:34;26.00;99.90
18339;DHT22;9295;44.484;11.240;2023-07-20T00:11:03;26.00;99.90
18339;DHT22;9295;44.484;11.240;2023-07-20T00:13:31;26.20;99.90
18339;DHT22;9295;44.484;11.240;2023-07-20T00:16:00;26.20;99.90
18339;DHT22;9295;44.484;11.240;2023-07-20T00:18:28;26.20;99.90
18339;DHT22;9295;44.484;11.240;2023-07-20T00:20:59;26.20;99.90
18339;DHT22;9295;44.484;11.240;2023-07-20T00:23:28;26.30;99.90
18339;DHT22;9295;44.484;11.240;2023-07-20T00:25:59;26.40;99.90
18339;DHT22;9295;44.484;11.240;2023-07-20T00:28:28;26.50;99.90
18339;DHT22;9295;44.484;11.240;2023-07-20T00:30:56;26.60;99.90
18339;DHT22;9295;44.484;11.240;2023-07-20T00:33:28;26.60;99.90
18339;DHT22;9295;44.484;11.240;2023-07-20T00:36:00;26.70;99.90
18339;DHT22;9295;44.484;11.240;2023-07-20T00:38:31;26.70;99.90
18339;DHT22;9295;44.484;11.240;2023-07-20T00:40:59;26.70;99.90
18339;DHT22;9295;44.484;11.240;2023-07-20T00:43:28;26.60;99.90
18339;DHT22;9295;44.484;11.240;2023-07-20T00:45:56;26.60;99.90
18339;DHT22;9295;44.484;11.240;2023-07-20T00:48:28;26.70;99.90
18339;DHT22;9295;44.484;11.240;2023-07-20T00:50:57;26.70;99.90
18339;DHT22;9295;44.484;11.240;2023-07-20T00:53:28;26.70;99.90
18339;DHT22;9295;44.484;11.240;2023-07-20T00:55:56;26.60;99.90
18339;DHT22;9295;44.484;11.240;2023-07-20T00:58:25;26.40;99.90
18339;DHT22;9295;44.484;11.240;2023-07-20T01:00:56;26.00;99.90
18339;DHT22;9295;44.484;11.240;2023-07-20T01:03:25;25.80;99.90
18339;DHT22;9295;44.484;11.240;2023-07-20T01:05:57;25.70;99.90
18339;DHT22;9295;44.484;11.240;2023-07-20T01:08:36;25.50;99.90
18339;DHT22;9295;44.484;11.240;2023-07-20T01:11:13;25.50;99.90
18339;DHT22;9295;44.484;11.240;2023-07-20T01:13:44;25.50;99.90
18339;DHT22;9295;44.484;11.240;2023-07-20T01:16:13;25.60;99.90
18339;DHT22;9295;44.484;11.240;2023-07-20T01:18:42;25.70;99.90
18339;DHT22;9295;44.484;11.240;2023-07-20T01:21:16;25.70;99.90
18339;DHT22;9295;44.484;11.240;2023-07-20T01:27:08;25.60;99.90
18339;DHT22;9295;44.484;11.240;2023-07-20T01:30:02;25.40;99.90
18339;DHT22;9295;44.484;11.240;2023-07-20T01:32:35;25.10;99.90
18339;DHT22;9295;44.484;11.240;2023-07-20T01:35:05;24.90;99.90
18339;DHT22;9295;44.484;11.240;2023-07-20T01:37:35;24.60;99.90
18339;DHT22;9295;44.484;11.240;2023-07-20T01:40:07;24.30;99.90
18339;DHT22;9295;44.484;11.240;2023-07-20T01:42:38;24.20;99.90
18339;DHT22;9295;44.484;11.240;2023-07-20T01:45:07;24.20;99.90
18339;DHT22;9295;44.484;11.240;2023-07-20T01:47:37;24.10;99.90
18339;DHT22;9295;44.484;11.240;2023-07-20T01:50:07;24.10;99.90
18339;DHT22;9295;44.484;11.240;2023-07-20T01:52:36;24.20;99.90
18339;DHT22;9295;44.484;11.240;2023-07-20T01:55:07;24.20;99.90
18339;DHT22;9295;44.484;11.240;2023-07-20T01:57:36;24.10;99.90
18339;DHT22;9295;44.484;11.240;2023-07-20T02:00:06;24.10;99.90
18339;DHT22;9295;44.484;11.240;2023-07-20T02:02:42;24.10;99.90
18339;DHT22;9295;44.484;11.240;2023-07-20T02:05:11;24.10;99.90
18339;DHT22;9295;44.484;11.240;2023-07-20T02:07:39;24.10;99.90
18339;DHT22;9295;44.484;11.240;2023-07-20T02:10:10;24.20;99.90
18339;DHT22;9295;44.484;11.240;2023-07-20T02:12:39;24.20;99.90
18339;DHT22;9295;44.484;11.240;2023-07-20T02:15:08;24.10;99.90
18339;DHT22;9295;44.484;11.240;2023-07-20T02:17:41;24.10;99.90
18339;DHT22;9295;44.484;11.240;2023-07-20T02:20:13;24.10;99.90
18339;DHT22;9295;44.484;11.240;2023-07-20T02:22:41;24.10;99.90
18339;DHT22;9295;44.484;11.240;2023-07-20T02:25:10;24.10;99.90
18339;DHT22;9295;44.484;11.240;2023-07-20T02:27:38;24.10;99.90
18339;DHT22;9295;44.484;11.240;2023-07-20T02:30:08;24.00;99.90
18339;DHT22;9295;44.484;11.240;2023-07-20T02:32:38;24.00;99.90
18339;DHT22;9295;44.484;11.240;2023-07-20T02:35:09;23.90;99.90
18339;DHT22;9295;44.484;11.240;2023-07-20T02:37:39;23.90;99.90
18339;DHT22;9295;44.484;11.240;2023-07-20T02:40:08;23.80;99.90
18339;DHT22;9295;44.484;11.240;2023-07-20T02:42:38;23.80;99.90
18339;DHT22;9295;44.484;11.240;2023-07-20T02:45:07;23.80;99.90
18339;DHT22;9295;44.484;11.240;2023-07-20T02:47:36;23.80;99.90
18339;DHT22;9295;44.484;11.240;2023-07-20T02:50:07;23.70;99.90
18339;DHT22;9295;44.484;11.240;2023-07-20T02:52:38;23.70;99.90
18339;DHT22;9295;44.484;11.240;2023-07-20T02:55:07;23.70;99.90
18339;DHT22;9295;44.484;11.240;2023-07-20T02:57:36;23.60;99.90
18339;DHT22;9295;44.484;11.240;2023-07-20T03:00:07;23.70;99.90
18339;DHT22;9295;44.484;11.240;2023-07-20T03:02:36;23.70;99.90
18339;DHT22;9295;44.484;11.240;2023-07-20T03:05:05;23.70;99.90
18339;DHT22;9295;44.484;11.240;2023-07-20T03:07:35;23.60;99.90
18339;DHT22;9295;44.484;11.240;2023-07-20T03:10:06;23.50;99.90
18339;DHT22;9295;44.484;11.240;2023-07-20T03:12:36;23.60;99.90
18339;DHT22;9295;44.484;11.240;2023-07-20T03:15:06;23.50;99.90
18339;DHT22;9295;44.484;11.240;2023-07-20T03:17:34;23.60;99.90
18339;DHT22;9295;44.484;11.240;2023-07-20T03:20:05;23.60;99.90
18339;DHT22;9295;44.484;11.240;2023-07-20T03:22:36;23.60;99.90
18339;DHT22;9295;44.484;11.240;2023-07-20T03:25:09;23.50;99.90
18339;DHT22;9295;44.484;11.240;2023-07-20T03:27:37;23.60;99.90
18339;DHT22;9295;44.484;11.240;2023-07-20T03:30:09;23.60;99.90
18339;DHT22;9295;44.484;11.240;2023-07-20T03:32:38;23.60;99.90
18339;DHT22;9295;44.484;11.240;2023-07-20T03:35:07;23.60;99.90
18339;DHT22;9295;44.484;11.240;2023-07-20T03:37:36;23.60;99.90
18339;DHT22;9295;44.484;11.240;2023-07-20T03:40:08;23.50;99.90
18339;DHT22;9295;44.484;11.240;2023-07-20T03:42:38;23.60;99.90
18339;DHT22;9295;44.484;11.240;2023-07-20T03:45:09;23.60;99.90
18339;DHT22;9295;44.484;11.240;2023-07-20T03:47:38;23.70;99.90
18339;DHT22;9295;44.484;11.240;2023-07-20T03:50:07;23.70;99.90
18339;DHT22;9295;44.484;11.240;2023-07-20T03:52:37;23.70;99.90
18339;DHT22;9295;44.484;11.240;2023-07-20T03:55:08;23.70;99.90
18339;DHT22;9295;44.484;11.240;2023-07-20T03:57:37;23.70;99.90
18339;DHT22;9295;44.484;11.240;2023-07-20T04:00:06;23.70;99.90
18339;DHT22;9295;44.484;11.240;2023-07-20T04:02:39;23.70;99.90
18339;DHT22;9295;44.484;11.240;2023-07-20T04:05:08;23.70;99.90
18339;DHT22;9295;44.484;11.240;2023-07-20T04:07:36;23.70;99.90
18339;DHT22;9295;44.484;11.240;2023-07-20T04:10:09;23.70;99.90
18339;DHT22;9295;44.484;11.240;2023-07-20T04:12:37;23.80;99.90
18339;DHT22;9295;44.484;11.240;2023-07-20T04:15:07;23.90;99.90
18339;DHT22;9295;44.484;11.240;2023-07-20T04:17:36;23.90;99.90
18339;DHT22;9295;44.484;11.240;2023-07-20T04:20:05;24.00;99.90
18339;DHT22;9295;44.484;11.240;2023-07-20T04:22:34;24.10;99.90
18339;DHT22;9295;44.484;11.240;2023-07-20T04:25:05;24.20;99.90
18339;DHT22;9295;44.484;11.240;2023-07-20T04:27:35;24.30;99.90
18339;DHT22;9295;44.484;11.240;2023-07-20T04:30:06;24.30;99.90
18339;DHT22;9295;44.484;11.240;2023-07-20T04:32:35;24.40;99.90
18339;DHT22;9295;44.484;11.240;2023-07-20T04:35:06;24.40;99.90
18339;DHT22;9295;44.484;11.240;2023-07-20T04:37:40;24.50;99.90
18339;DHT22;9295;44.484;11.240;2023-07-20T04:40:16;24.60;99.90
18339;DHT22;9295;44.484;11.240;2023-07-20T04:42:46;24.80;99.90
18339;DHT22;9295;44.484;11.240;2023-07-20T04:45:16;24.90;99.90
18339;DHT22;9295;44.484;11.240;2023-07-20T04:47:46;24.90;99.90
18339;DHT22;9295;44.484;11.240;2023-07-20T04:50:15;25.00;99.90
18339;DHT22;9295;44.484;11.240;2023-07-20T04:52:44;25.10;99.90
18339;DHT22;9295;44.484;11.240;2023-07-20T04:55:19;25.20;99.90
18339;DHT22;9295;44.484;11.240;2023-07-20T04:57:52;25.30;99.90
18339;DHT22;9295;44.484;11.240;2023-07-20T05:00:24;25.60;99.90
18339;DHT22;9295;44.484;11.240;2023-07-20T05:02:55;25.60;99.90
18339;DHT22;9295;44.484;11.240;2023-07-20T05:05:23;25.60;99.90
18339;DHT22;9295;44.484;11.240;2023-07-20T05:07:52;25.70;99.90
18339;DHT22;9295;44.484;11.240;2023-07-20T05:10:21;25.90;99.90
18339;DHT22;9295;44.484;11.240;2023-07-20T05:12:51;26.10;99.90
18339;DHT22;9295;44.484;11.240;2023-07-20T05:15:22;26.20;99.90
18339;DHT22;9295;44.484;11.240;2023-07-20T05:17:52;26.20;99.90
18339;DHT22;9295;44.484;11.240;2023-07-20T05:20:23;26.20;99.90
18339;DHT22;9295;44.484;11.240;2023-07-20T05:22:51;26.30;99.90
18339;DHT22;9295;44.484;11.240;2023-07-20T05:25:20;26.50;99.90
18339;DHT22;9295;44.484;11.240;2023-07-20T05:27:50;26.70;99.90
18339;DHT22;9295;44.484;11.240;2023-07-20T05:30:20;27.00;99.90
18339;DHT22;9295;44.484;11.240;2023-07-20T05:32:49;27.20;99.90
18339;DHT22;9295;44.484;11.240;2023-07-20T05:35:20;27.40;99.90
18339;DHT22;9295;44.484;11.240;2023-07-20T05:37:49;27.50;99.90
18339;DHT22;9295;44.484;11.240;2023-07-20T05:40:18;27.70;99.90
18339;DHT22;9295;44.484;11.240;2023-07-20T05:42:48;27.90;99.90
18339;DHT22;9295;44.484;11.240;2023-07-20T05:45:20;27.90;99.90
18339;DHT22;9295;44.484;11.240;2023-07-20T05:47:49;28.00;99.90
18339;DHT22;9295;44.484;11.240;2023-07-20T05:50:18;28.20;99.90
18339;DHT22;9295;44.484;11.240;2023-07-20T05:52:46;28.40;99.90
18339;DHT22;9295;44.484;11.240;2023-07-20T05:55:15;28.40;99.90
18339;DHT22;9295;44.484;11.240;2023-07-20T05:57:44;28.60;99.90
18339;DHT22;9295;44.484;11.240;2023-07-20T06:00:13;28.70;99.90
18339;DHT22;9295;44.484;11.240;2023-07-20T06:02:45;28.80;99.90
18339;DHT22;9295;44.484;11.240;2023-07-20T06:05:15;28.90;99.90
18339;DHT22;9295;44.484;11.240;2023-07-20T06:07:43;29.00;99.90
18339;DHT22;9295;44.484;11.240;2023-07-20T06:10:12;29.00;99.90
18339;DHT22;9295;44.484;11.240;2023-07-20T06:12:41;29.00;99.90
18339;DHT22;9295;44.484;11.240;2023-07-20T06:15:25;29.00;99.90
18339;DHT22;9295;44.484;11.240;2023-07-20T06:17:55;29.10;99.90
18339;DHT22;9295;44.484;11.240;2023-07-20T06:20:25;29.00;99.90
18339;DHT22;9295;44.484;11.240;2023-07-20T06:22:54;29.20;99.90
18339;DHT22;9295;44.484;11.240;2023-07-20T06:25:23;29.30;99.90
18339;DHT22;9295;44.484;11.240;2023-07-20T06:27:51;29.30;99.90
18339;DHT22;9295;44.484;11.240;2023-07-20T06:30:21;29.20;99.90
18339;DHT22;9295;44.484;11.240;2023-07-20T06:32:51;29.40;99.90
18339;DHT22;9295;44.484;11.240;2023-07-20T06:35:21;29.70;99.90
18339;DHT22;9295;44.484;11.240;2023-07-20T06:37:50;30.00;99.90
18339;DHT22;9295;44.484;11.240;2023-07-20T06:40:21;30.10;99.90
18339;DHT22;9295;44.484;11.240;2023-07-20T06:42:54;30.10;99.90
18339;DHT22;9295;44.484;11.240;2023-07-20T06:45:26;30.20;99.90
18339;DHT22;9295;44.484;11.240;2023-07-20T06:47:54;30.20;99.90
18339;DHT22;9295;44.484;11.240;2023-07-20T06:50:24;30.30;99.90
18339;DHT22;9295;44.484;11.240;2023-07-20T06:52:54;30.20;99.90
18339;DHT22;9295;44.484;11.240;2023-07-20T06:55:25;30.30;99.90
18339;DHT22;9295;44.484;11.240;2023-07-20T06:57:58;30.30;99.90
18339;DHT22;9295;44.484;11.240;2023-07-20T07:00:27;30.50;99.90
18339;DHT22;9295;44.484;11.240;2023-07-20T07:02:55;30.80;99.90
18339;DHT22;9295;44.484;11.240;2023-07-20T07:05:28;30.90;99.90
18339;DHT22;9295;44.484;11.240;2023-07-20T07:08:00;30.90;99.90
18339;DHT22;9295;44.484;11.240;2023-07-20T07:10:28;30.80;99.90
18339;DHT22;9295;44.484;11.240;2023-07-20T07:12:57;30.60;99.90
18339;DHT22;9295;44.484;11.240;2023-07-20T07:15:26;30.50;99.90
18339;DHT22;9295;44.484;11.240;2023-07-20T07:17:55;30.70;99.90
18339;DHT22;9295;44.484;11.240;2023-07-20T07:20:24;30.60;99.90
18339;DHT22;9295;44.484;11.240;2023-07-20T07:22:55;30.80;99.90
18339;DHT22;9295;44.484;11.240;2023-07-20T07:25:27;31.00;99.90
18339;DHT22;9295;44.484;11.240;2023-07-20T07:27:56;31.10;99.90
18339;DHT22;9295;44.484;11.240;2023-07-20T07:30:26;31.20;99.90
18339;DHT22;9295;44.484;11.240;2023-07-20T07:32:54;31.10;99.90
18339;DHT22;9295;44.484;11.240;2023-07-20T07:35:23;31.10;99.90
18339;DHT22;9295;44.484;11.240;2023-07-20T07:37:51;31.40;99.90
18339;DHT22;9295;44.484;11.240;2023-07-20T07:40:41;31.30;99.90
18339;DHT22;9295;44.484;11.240;2023-07-20T07:43:10;31.50;99.90
18339;DHT22;9295;44.484;11.240;2023-07-20T07:45:39;31.60;99.90
18339;DHT22;9295;44.484;11.240;2023-07-20T07:48:12;31.70;99.90
18339;DHT22;9295;44.484;11.240;2023-07-20T07:51:22;31.80;99.90
18339;DHT22;9295;44.484;11.240;2023-07-20T07:53:51;31.90;99.90
18339;DHT22;9295;44.484;11.240;2023-07-20T07:56:27;32.10;99.90
18339;DHT22;9295;44.484;11.240;2023-07-20T07:58:56;32.10;99.90
18339;DHT22;9295;44.484;11.240;2023-07-20T08:01:24;31.90;99.90
18339;DHT22;9295;44.484;11.240;2023-07-20T08:03:53;32.10;99.90
18339;DHT22;9295;44.484;11.240;2023-07-20T08:06:23;32.30;99.90
18339;DHT22;9295;44.484;11.240;2023-07-20T08:08:54;32.60;99.90
18339;DHT22;9295;44.484;11.240;2023-07-20T08:11:24;32.80;99.90
18339;DHT22;9295;44.484;11.240;2023-07-20T08:13:57;32.90;99.90
18339;DHT22;9295;44.484;11.240;2023-07-20T08:16:26;33.10;99.90
18339;DHT22;9295;44.484;11.240;2023-07-20T08:18:56;33.00;99.90
18339;DHT22;9295;44.484;11.240;2023-07-20T08:21:26;33.10;99.90
18339;DHT22;9295;44.484;11.240;2023-07-20T08:23:54;33.20;99.90
18339;DHT22;9295;44.484;11.240;2023-07-20T08:26:23;33.30;99.90
18339;DHT22;9295;44.484;11.240;2023-07-20T08:28:53;33.30;99.90
18339;DHT22;9295;44.484;11.240;2023-07-20T08:31:23;33.40;99.90
18339;DHT22;9295;44.484;11.240;2023-07-20T08:33:52;33.40;99.90
18339;DHT22;9295;44.484;11.240;2023-07-20T08:36:21;33.30;99.90
18339;DHT22;9295;44.484;11.240;2023-07-20T08:38:50;33.30;99.90
18339;DHT22;9295;44.484;11.240;2023-07-20T08:41:20;33.40;99.90
18339;DHT22;9295;44.484;11.240;2023-07-20T08:43:54;33.50;99.90
18339;DHT22;9295;44.484;11.240;2023-07-20T08:46:28;33.40;99.90
18339;DHT22;9295;44.484;11.240;2023-07-20T08:48:58;33.50;99.90
18339;DHT22;9295;44.484;11.240;2023-07-20T08:51:31;33.60;99.90
18339;DHT22;9295;44.484;11.240;2023-07-20T08:54:01;33.60;99.90
18339;DHT22;9295;44.484;11.240;2023-07-20T08:56:31;33.60;99.90
18339;DHT22;9295;44.484;11.240;2023-07-20T08:59:01;33.70;99.90
18339;DHT22;9295;44.484;11.240;2023-07-20T09:01:32;33.70;99.90
18339;DHT22;9295;44.484;11.240;2023-07-20T09:04:01;33.60;99.90
18339;DHT22;9295;44.484;11.240;2023-07-20T09:06:29;33.80;99.90
18339;DHT22;9295;44.484;11.240;2023-07-20T09:08:58;34.10;99.90
18339;DHT22;9295;44.484;11.240;2023-07-20T09:11:26;34.20;99.90
18339;DHT22;9295;44.484;11.240;2023-07-20T09:14:06;34.20;99.90
18339;DHT22;9295;44.484;11.240;2023-07-20T09:16:48;34.10;99.90
18339;DHT22;9295;44.484;11.240;2023-07-20T09:19:17;34.00;99.90
18339;DHT22;9295;44.484;11.240;2023-07-20T09:21:46;33.60;99.90
18339;DHT22;9295;44.484;11.240;2023-07-20T09:24:17;33.80;99.90
18339;DHT22;9295;44.484;11.240;2023-07-20T09:26:47;34.00;99.90
18339;DHT22;9295;44.484;11.240;2023-07-20T09:29:18;34.20;99.90
18339;DHT22;9295;44.484;11.240;2023-07-20T09:32:00;34.30;99.90
18339;DHT22;9295;44.484;11.240;2023-07-20T09:34:29;34.40;99.90
18339;DHT22;9295;44.484;11.240;2023-07-20T09:37:02;34.60;99.90
18339;DHT22;9295;44.484;11.240;2023-07-20T09:39:33;34.50;99.90
18339;DHT22;9295;44.484;11.240;2023-07-20T09:42:30;34.40;99.90
18339;DHT22;9295;44.484;11.240;2023-07-20T09:45:01;34.60;99.90
18339;DHT22;9295;44.484;11.240;2023-07-20T09:47:35;34.90;99.90
18339;DHT22;9295;44.484;11.240;2023-07-20T09:50:05;35.00;99.90
18339;DHT22;9295;44.484;11.240;2023-07-20T09:52:41;34.90;99.90
18339;DHT22;9295;44.484;11.240;2023-07-20T09:55:14;34.80;99.90
18339;DHT22;9295;44.484;11.240;2023-07-20T09:57:46;34.90;99.90
18339;DHT22;9295;44.484;11.240;2023-07-20T10:00:15;34.80;99.90
18339;DHT22;9295;44.484;11.240;2023-07-20T10:02:49;34.70;99.90
18339;DHT22;9295;44.484;11.240;2023-07-20T10:05:20;34.60;99.90
18339;DHT22;9295;44.484;11.240;2023-07-20T10:07:50;34.70;99.90
18339;DHT22;9295;44.484;11.240;2023-07-20T10:10:41;34.80;99.90
18339;DHT22;9295;44.484;11.240;2023-07-20T10:13:16;34.80;99.90
18339;DHT22;9295;44.484;11.240;2023-07-20T10:15:47;34.70;99.90
18339;DHT22;9295;44.484;11.240;2023-07-20T10:18:24;34.60;99.90
18339;DHT22;9295;44.484;11.240;2023-07-20T10:20:59;34.70;99.90
18339;DHT22;9295;44.484;11.240;2023-07-20T10:23:32;34.70;99.90
18339;DHT22;9295;44.484;11.240;2023-07-20T10:26:01;34.60;99.90
18339;DHT22;9295;44.484;11.240;2023-07-20T10:28:30;34.50;99.90
18339;DHT22;9295;44.484;11.240;2023-07-20T10:30:59;34.60;99.90
18339;DHT22;9295;44.484;11.240;2023-07-20T10:33:29;34.60;99.90
18339;DHT22;9295;44.484;11.240;2023-07-20T10:36:03;34.50;99.90
18339;DHT22;9295;44.484;11.240;2023-07-20T10:38:39;34.50;99.90
18339;DHT22;9295;44.484;11.240;2023-07-20T10:41:19;34.30;99.90
18339;DHT22;9295;44.484;11.240;2023-07-20T10:43:49;34.30;99.90
18339;DHT22;9295;44.484;11.240;2023-07-20T10:46:33;34.40;99.90
18339;DHT22;9295;44.484;11.240;2023-07-20T10:49:05;34.30;99.90
18339;DHT22;9295;44.484;11.240;2023-07-20T10:51:39;34.20;99.90
18339;DHT22;9295;44.484;11.240;2023-07-20T10:54:10;34.30;99.90
18339;DHT22;9295;44.484;11.240;2023-07-20T10:57:21;34.30;99.90
18339;DHT22;9295;44.484;11.240;2023-07-20T10:59:50;34.30;99.90
18339;DHT22;9295;44.484;11.240;2023-07-20T11:02:19;34.60;99.90
18339;DHT22;9295;44.484;11.240;2023-07-20T11:04:49;34.60;99.90
18339;DHT22;9295;44.484;11.240;2023-07-20T11:10:14;34.60;99.90
18339;DHT22;9295;44.484;11.240;2023-07-20T11:13:18;34.60;99.90
18339;DHT22;9295;44.484;11.240;2023-07-20T11:15:53;34.40;99.90
18339;DHT22;9295;44.484;11.240;2023-07-20T11:18:29;34.30;99.90
18339;DHT22;9295;44.484;11.240;2023-07-20T11:21:01;33.90;99.90
18339;DHT22;9295;44.484;11.240;2023-07-20T11:23:31;33.90;99.90
18339;DHT22;9295;44.484;11.240;2023-07-20T11:26:01;34.10;99.90
18339;DHT22;9295;44.484;11.240;2023-07-20T11:28:31;34.30;99.90
18339;DHT22;9295;44.484;11.240;2023-07-20T11:31:00;34.40;99.90
18339;DHT22;9295;44.484;11.240;2023-07-20T11:33:30;34.50;99.90
18339;DHT22;9295;44.484;11.240;2023-07-20T11:35:59;34.60;99.90
18339;DHT22;9295;44.484;11.240;2023-07-20T11:38:29;34.70;99.90
18339;DHT22;9295;44.484;11.240;2023-07-20T11:40:58;34.70;99.90
18339;DHT22;9295;44.484;11.240;2023-07-20T11:43:26;34.70;99.90
18339;DHT22;9295;44.484;11.240;2023-07-20T11:45:55;34.60;99.90
18339;DHT22;9295;44.484;11.240;2023-07-20T11:48:24;34.60;99.90
18339;DHT22;9295;44.484;11.240;2023-07-20T11:50:52;34.60;99.90
18339;DHT22;9295;44.484;11.240;2023-07-20T11:53:24;34.50;99.90
18339;DHT22;9295;44.484;11.240;2023-07-20T11:55:53;34.30;99.90
18339;DHT22;9295;44.484;11.240;2023-07-20T11:58:22;34.40;99.90
18339;DHT22;9295;44.484;11.240;2023-07-20T12:00:53;34.50;99.90
18339;DHT22;9295;44.484;11.240;2023-07-20T12:03:30;34.50;99.90
18339;DHT22;9295;44.484;11.240;2023-07-20T12:06:06;34.40;99.90
18339;DHT22;9295;44.484;11.240;2023-07-20T12:08:38;34.50;99.90
18339;DHT22;9295;44.484;11.240;2023-07-20T12:11:07;34.50;99.90
18339;DHT22;9295;44.484;11.240;2023-07-20T12:13:37;34.70;99.90
18339;DHT22;9295;44.484;11.240;2023-07-20T12:16:10;34.70;99.90
18339;DHT22;9295;44.484;11.240;2023-07-20T12:18:41;34.70;99.90
18339;DHT22;9295;44.484;11.240;2023-07-20T12:21:12;34.70;99.90
18339;DHT22;9295;44.484;11.240;2023-07-20T12:23:42;34.70;99.90
18339;DHT22;9295;44.484;11.240;2023-07-20T12:26:11;34.70;99.90
18339;DHT22;9295;44.484;11.240;2023-07-20T12:28:42;34.80;99.90
18339;DHT22;9295;44.484;11.240;2023-07-20T12:31:12;34.90;99.90
18339;DHT22;9295;44.484;11.240;2023-07-20T12:33:41;35.00;99.90
18339;DHT22;9295;44.484;11.240;2023-07-20T12:36:11;35.00;99.90
18339;DHT22;9295;44.484;11.240;2023-07-20T12:38:43;35.20;99.90
18339;DHT22;9295;44.484;11.240;2023-07-20T12:41:13;35.20;99.90
18339;DHT22;9295;44.484;11.240;2023-07-20T12:43:43;35.30;99.90
18339;DHT22;9295;44.484;11.240;2023-07-20T12:46:13;35.40;99.90
18339;DHT22;9295;44.484;11.240;2023-07-20T12:48:42;35.40;99.90
18339;DHT22;9295;44.484;11.240;2023-07-20T12:51:14;35.30;99.90
18339;DHT22;9295;44.484;11.240;2023-07-20T12:53:44;35.30;99.90
18339;DHT22;9295;44.484;11.240;2023-07-20T12:56:14;35.30;99.90
18339;DHT22;9295;44.484;11.240;2023-07-20T12:58:46;34.90;99.90
18339;DHT22;9295;44.484;11.240;2023-07-20T13:01:17;34.90;99.90
18339;DHT22;9295;44.484;11.240;2023-07-20T13:03:45;34.60;99.90
18339;DHT22;9295;44.484;11.240;2023-07-20T13:06:17;34.60;99.90
18339;DHT22;9295;44.484;11.240;2023-07-20T13:08:49;34.50;99.90
18339;DHT22;9295;44.484;11.240;2023-07-20T13:11:23;34.50;99.90
18339;DHT22;9295;44.484;11.240;2023-07-20T13:13:52;34.70;99.90
18339;DHT22;9295;44.484;11.240;2023-07-20T13:16:20;34.70;99.90
18339;DHT22;9295;44.484;11.240;2023-07-20T13:18:49;34.60;99.90
18339;DHT22;9295;44.484;11.240;2023-07-20T13:21:18;34.50;99.90
18339;DHT22;9295;44.484;11.240;2023-07-20T13:23:52;34.60;99.90
18339;DHT22;9295;44.484;11.240;2023-07-20T13:26:21;34.40;99.90
18339;DHT22;9295;44.484;11.240;2023-07-20T13:28:52;34.40;99.90
18339;DHT22;9295;44.484;11.240;2023-07-20T13:31:22;34.60;99.90
18339;DHT22;9295;44.484;11.240;2023-07-20T13:33:52;34.80;99.90
18339;DHT22;9295;44.484;11.240;2023-07-20T13:36:26;34.90;99.90
18339;DHT22;9295;44.484;11.240;2023-07-20T13:39:01;34.90;99.90
18339;DHT22;9295;44.484;11.240;2023-07-20T13:41:32;34.90;99.90
18339;DHT22;9295;44.484;11.240;2023-07-20T13:44:02;34.90;99.90
18339;DHT22;9295;44.484;11.240;2023-07-20T13:46:33;35.00;99.90
18339;DHT22;9295;44.484;11.240;2023-07-20T13:49:08;35.10;99.90
18339;DHT22;9295;44.484;11.240;2023-07-20T13:51:41;35.10;99.90
18339;DHT22;9295;44.484;11.240;2023-07-20T13:54:12;35.10;99.90
18339;DHT22;9295;44.484;11.240;2023-07-20T13:56:45;35.10;99.90
18339;DHT22;9295;44.484;11.240;2023-07-20T13:59:17;35.20;99.90
18339;DHT22;9295;44.484;11.240;2023-07-20T14:01:45;35.20;99.90
18339;DHT22;9295;44.484;11.240;2023-07-20T14:04:14;35.20;99.90
18339;DHT22;9295;44.484;11.240;2023-07-20T14:06:43;35.30;99.90
18339;DHT22;9295;44.484;11.240;2023-07-20T14:09:13;35.40;99.90
18339;DHT22;9295;44.484;11.240;2023-07-20T14:11:42;35.40;99.90
18339;DHT22;9295;44.484;11.240;2023-07-20T14:14:13;35.40;99.90
18339;DHT22;9295;44.484;11.240;2023-07-20T14:16:45;35.30;99.90
18339;DHT22;9295;44.484;11.240;2023-07-20T14:19:14;35.20;99.90
18339;DHT22;9295;44.484;11.240;2023-07-20T14:21:42;35.20;99.90
18339;DHT22;9295;44.484;11.240;2023-07-20T14:24:13;35.40;99.90
18339;DHT22;9295;44.484;11.240;2023-07-20T14:26:45;35.20;99.90
18339;DHT22;9295;44.484;11.240;2023-07-20T14:29:18;35.10;99.90
18339;DHT22;9295;44.484;11.240;2023-07-20T14:31:49;35.20;99.90
18339;DHT22;9295;44.484;11.240;2023-07-20T14:34:20;35.30;99.90
18339;DHT22;9295;44.484;11.240;2023-07-20T14:36:49;35.40;99.90
18339;DHT22;9295;44.484;11.240;2023-07-20T14:39:19;35.50;99.90
18339;DHT22;9295;44.484;11.240;2023-07-20T14:41:51;35.60;99.90
18339;DHT22;9295;44.484;11.240;2023-07-20T14:44:24;35.70;99.90
18339;DHT22;9295;44.484;11.240;2023-07-20T14:46:57;35.80;99.90
18339;DHT22;9295;44.484;11.240;2023-07-20T14:49:41;35.90;99.90
18339;DHT22;9295;44.484;11.240;2023-07-20T14:52:10;35.90;99.80
18339;DHT22;9295;44.484;11.240;2023-07-20T14:54:45;35.90;99.80
18339;DHT22;9295;44.484;11.240;2023-07-20T14:57:14;36.00;99.90
18339;DHT22;9295;44.484;11.240;2023-07-20T14:59:43;36.00;99.60
18339;DHT22;9295;44.484;11.240;2023-07-20T15:02:13;35.90;99.50
18339;DHT22;9295;44.484;11.240;2023-07-20T15:04:47;35.80;99.40
18339;DHT22;9295;44.484;11.240;2023-07-20T15:07:17;35.70;99.40
18339;DHT22;9295;44.484;11.240;2023-07-20T15:09:48;35.70;99.70
18339;DHT22;9295;44.484;11.240;2023-07-20T15:12:17;35.60;99.50
18339;DHT22;9295;44.484;11.240;2023-07-20T15:15:03;35.50;99.60
18339;DHT22;9295;44.484;11.240;2023-07-20T15:17:32;35.60;99.80
18339;DHT22;9295;44.484;11.240;2023-07-20T15:20:02;35.50;99.70
18339;DHT22;9295;44.484;11.240;2023-07-20T15:22:33;35.70;99.80
18339;DHT22;9295;44.484;11.240;2023-07-20T15:25:07;35.80;99.70
18339;DHT22;9295;44.484;11.240;2023-07-20T15:27:40;36.00;99.50
18339;DHT22;9295;44.484;11.240;2023-07-20T15:30:17;36.10;99.40
18339;DHT22;9295;44.484;11.240;2023-07-20T15:32:49;35.80;99.40
18339;DHT22;9295;44.484;11.240;2023-07-20T15:35:21;35.90;99.40
18339;DHT22;9295;44.484;11.240;2023-07-20T15:37:50;35.90;99.30
18339;DHT22;9295;44.484;11.240;2023-07-20T15:40:22;36.00;99.40
18339;DHT22;9295;44.484;11.240;2023-07-20T15:42:51;36.10;99.40
18339;DHT22;9295;44.484;11.240;2023-07-20T15:45:20;36.10;99.20
18339;DHT22;9295;44.484;11.240;2023-07-20T15:47:50;36.10;99.20
18339;DHT22;9295;44.484;11.240;2023-07-20T15:50:18;36.00;99.00
18339;DHT22;9295;44.484;11.240;2023-07-20T15:52:48;35.70;99.40
18339;DHT22;9295;44.484;11.240;2023-07-20T15:55:17;35.70;99.30
18339;DHT22;9295;44.484;11.240;2023-07-20T15:57:49;35.60;99.70
18339;DHT22;9295;44.484;11.240;2023-07-20T16:00:22;35.70;99.80